Time;durP1;ratioP1;P1;durP2;ratioP2;P2;SDS_P1;SDS_P2;PMS_P1;PMS_P2;Temp;Humidity;BMP_temperature;BMP_pressure;BME280_temperature;BME280_humidity;BME280_pressure;Samples;Min_cycle;Max_cycle;Signal;HPM_P1;HPM_P2
2022/12/02 00:01:38;;;;;;;;;;;3.40;99.90;;;;;;5069386;28;229311;-72
2022/12/02 00:04:23;;;;;;;;;;;3.40;99.90;;;;;;5010700;28;90566;-73
2022/12/02 00:06:50;;;;;;;;;;;3.50;99.90;;;;;;5017845;28;236900;-72
2022/12/02 00:09:33;;;;;;;;;;;3.40;99.90;;;;;;5103821;27;20012;-72
2022/12/02 00:12:00;;;;;;;;;;;3.40;99.90;;;;;;5022000;28;219560;-72
2022/12/02 00:14:33;;;;;;;;;;;3.40;99.90;;;;;;5095413;27;19925;-72
2022/12/02 00:16:59;;;;;;;;;;;3.40;99.90;;;;;;5021987;28;194383;-71
2022/12/02 00:19:25;;;;;;;;;;;3.50;99.90;;;;;;5057804;28;19928;-72
2022/12/02 00:21:51;;;;;;;;;;;3.50;99.90;;;;;;5027152;27;207537;-72
2022/12/02 00:24:18;;;;;;;;;;;3.40;99.90;;;;;;5077305;28;19928;-72
2022/12/02 00:26:44;;;;;;;;;;;3.50;99.90;;;;;;5051084;28;213387;-72
2022/12/02 00:29:10;;;;;;;;;;;3.50;99.90;;;;;;5052080;28;19935;-72
2022/12/02 00:31:36;;;;;;;;;;;3.50;99.90;;;;;;5076435;28;20300;-72
2022/12/02 00:34:03;;;;;;;;;;;3.50;99.90;;;;;;5031192;28;274899;-72
2022/12/02 00:36:29;;;;;;;;;;;3.50;99.90;;;;;;5076004;28;19932;-72
2022/12/02 00:38:55;;;;;;;;;;;3.50;99.90;;;;;;5056364;27;204612;-73
2022/12/02 00:41:22;;;;;;;;;;;3.50;99.90;;;;;;5076842;28;19935;-72
2022/12/02 00:46:33;;;;;;;;;;;3.50;99.90;;;;;;5076062;28;19925;-72
2022/12/02 00:49:01;;;;;;;;;;;3.50;99.90;;;;;;5026084;28;155011;-72
2022/12/02 00:51:27;;;;;;;;;;;3.50;99.90;;;;;;5077178;28;19947;-72
2022/12/02 00:53:53;;;;;;;;;;;3.50;99.90;;;;;;5035190;27;205732;-72
2022/12/02 00:56:19;;;;;;;;;;;3.50;99.90;;;;;;5080052;28;20397;-72
2022/12/02 00:58:45;;;;;;;;;;;3.50;99.90;;;;;;5045072;28;207304;-72
2022/12/02 01:01:11;;;;;;;;;;;3.50;99.90;;;;;;5075878;28;19928;-72
2022/12/02 01:03:37;;;;;;;;;;;3.50;99.90;;;;;;5017264;28;200208;-73
2022/12/02 01:06:03;;;;;;;;;;;3.40;99.90;;;;;;5072122;28;20375;-73
2022/12/02 01:08:29;;;;;;;;;;;3.50;99.90;;;;;;5021687;27;211270;-72
2022/12/02 01:10:56;;;;;;;;;;;3.40;99.90;;;;;;5071710;28;19965;-72
2022/12/02 01:13:22;;;;;;;;;;;3.40;99.90;;;;;;5042003;28;173532;-72
2022/12/02 01:15:49;;;;;;;;;;;3.40;99.90;;;;;;5070000;28;19924;-72
2022/12/02 01:18:15;;;;;;;;;;;3.40;99.90;;;;;;5045048;28;183467;-72
2022/12/02 01:20:41;;;;;;;;;;;3.40;99.90;;;;;;5076561;28;20662;-72
2022/12/02 01:23:07;;;;;;;;;;;3.40;99.90;;;;;;5021593;28;208156;-72
2022/12/02 01:25:33;;;;;;;;;;;3.40;99.90;;;;;;5069538;28;19920;-72
2022/12/02 01:27:59;;;;;;;;;;;3.40;99.90;;;;;;5039637;27;209889;-72
2022/12/02 01:30:25;;;;;;;;;;;3.40;99.90;;;;;;5066047;28;19935;-72
2022/12/02 01:32:51;;;;;;;;;;;3.30;99.90;;;;;;5020600;28;214961;-72
2022/12/02 01:35:17;;;;;;;;;;;3.30;99.90;;;;;;5078798;28;19927;-72
2022/12/02 01:37:43;;;;;;;;;;;3.30;99.90;;;;;;5031651;28;124855;-72
2022/12/02 01:40:09;;;;;;;;;;;3.30;99.90;;;;;;5083858;28;19955;-72
2022/12/02 01:42:36;;;;;;;;;;;3.30;99.90;;;;;;5030435;28;207879;-71
2022/12/02 01:45:02;;;;;;;;;;;3.20;99.90;;;;;;5082441;28;19932;-72
2022/12/02 01:47:28;;;;;;;;;;;3.30;99.90;;;;;;5026345;28;206221;-72
2022/12/02 01:49:54;;;;;;;;;;;3.20;99.90;;;;;;5075955;28;19974;-72
2022/12/02 01:52:20;;;;;;;;;;;3.20;99.90;;;;;;5044853;28;206631;-73
2022/12/02 01:54:46;;;;;;;;;;;3.20;99.90;;;;;;5058709;28;19931;-72
2022/12/02 01:57:14;;;;;;;;;;;3.20;99.90;;;;;;5023739;28;211939;-72
2022/12/02 01:59:40;;;;;;;;;;;3.30;99.90;;;;;;5060138;28;19920;-72
2022/12/02 02:02:29;;;;;;;;;;;3.30;99.90;;;;;;5018938;28;215433;-72
2022/12/02 02:04:58;;;;;;;;;;;3.30;99.90;;;;;;5083788;28;19932;-73
2022/12/02 02:07:24;;;;;;;;;;;3.30;99.90;;;;;;5022710;28;209114;-72
2022/12/02 02:09:50;;;;;;;;;;;3.30;99.90;;;;;;5080144;28;20440;-72
2022/12/02 02:12:16;;;;;;;;;;;3.30;99.90;;;;;;5024791;28;206888;-72
2022/12/02 02:14:44;;;;;;;;;;;3.30;99.90;;;;;;5062767;28;20198;-73
2022/12/02 02:17:10;;;;;;;;;;;3.30;99.90;;;;;;5035214;28;214661;-72
2022/12/02 02:19:36;;;;;;;;;;;3.30;99.90;;;;;;5090232;28;19928;-72
2022/12/02 02:22:04;;;;;;;;;;;3.30;99.90;;;;;;5026202;28;201894;-72
2022/12/02 02:24:30;;;;;;;;;;;3.30;99.90;;;;;;5074731;28;19924;-72
2022/12/02 02:26:56;;;;;;;;;;;3.30;99.90;;;;;;5021796;28;212929;-72
2022/12/02 02:29:22;;;;;;;;;;;3.30;99.90;;;;;;5057111;28;19928;-72
2022/12/02 02:31:48;;;;;;;;;;;3.20;99.90;;;;;;5027009;28;209338;-72
2022/12/02 02:34:14;;;;;;;;;;;3.20;99.90;;;;;;5084559;28;19959;-72
2022/12/02 02:36:40;;;;;;;;;;;3.20;99.90;;;;;;5058158;28;210728;-72
2022/12/02 02:39:06;;;;;;;;;;;3.20;99.90;;;;;;5050806;28;205983;-72
2022/12/02 02:41:32;;;;;;;;;;;3.20;99.90;;;;;;5074107;28;19928;-72
2022/12/02 02:43:58;;;;;;;;;;;3.20;99.90;;;;;;4989954;28;208209;-72
2022/12/02 02:46:24;;;;;;;;;;;3.10;99.90;;;;;;5101237;28;19966;-72
2022/12/02 02:48:50;;;;;;;;;;;3.10;99.90;;;;;;5035892;28;165016;-72
2022/12/02 02:51:16;;;;;;;;;;;3.10;99.90;;;;;;5100150;28;19931;-72
2022/12/02 02:53:43;;;;;;;;;;;3.10;99.90;;;;;;5002564;28;218390;-72
2022/12/02 02:56:09;;;;;;;;;;;3.10;99.90;;;;;;5084353;28;19939;-72
2022/12/02 02:58:35;;;;;;;;;;;3.00;99.90;;;;;;4991462;28;163569;-72
2022/12/02 03:01:06;;;;;;;;;;;3.00;99.90;;;;;;5068405;28;19931;-72
2022/12/02 03:03:33;;;;;;;;;;;3.00;99.90;;;;;;5031967;28;185051;-72
2022/12/02 03:06:00;;;;;;;;;;;3.00;99.90;;;;;;5078989;28;19924;-72
2022/12/02 03:08:28;;;;;;;;;;;3.00;99.90;;;;;;5037952;28;208563;-73
2022/12/02 03:10:55;;;;;;;;;;;2.90;99.90;;;;;;5075198;28;19928;-72
2022/12/02 03:13:21;;;;;;;;;;;2.90;99.90;;;;;;5031767;28;163563;-72
2022/12/02 03:15:47;;;;;;;;;;;2.90;99.90;;;;;;5076314;28;20328;-73
2022/12/02 03:18:14;;;;;;;;;;;2.90;99.90;;;;;;5033399;28;220202;-72
2022/12/02 03:20:40;;;;;;;;;;;2.90;99.90;;;;;;5082340;28;19920;-72
2022/12/02 03:23:06;;;;;;;;;;;2.90;99.90;;;;;;5027741;28;209819;-72
2022/12/02 03:25:32;;;;;;;;;;;2.90;99.90;;;;;;5079598;28;19928;-73
2022/12/02 03:27:59;;;;;;;;;;;2.80;99.90;;;;;;5045457;28;173853;-72
2022/12/02 03:30:25;;;;;;;;;;;2.90;99.90;;;;;;5065757;28;19920;-72
2022/12/02 03:32:51;;;;;;;;;;;2.90;99.90;;;;;;5032357;28;215965;-72
2022/12/02 03:35:17;;;;;;;;;;;2.80;99.90;;;;;;5086315;28;19921;-72
2022/12/02 03:37:43;;;;;;;;;;;2.90;99.90;;;;;;5039694;28;136396;-73
2022/12/02 03:40:09;;;;;;;;;;;2.90;99.90;;;;;;5079546;28;19994;-72
2022/12/02 03:42:35;;;;;;;;;;;2.90;99.90;;;;;;5033059;28;156214;-72
2022/12/02 03:45:02;;;;;;;;;;;2.90;99.90;;;;;;5093216;28;19920;-72
2022/12/02 03:47:28;;;;;;;;;;;2.90;99.90;;;;;;5032691;28;209703;-72
2022/12/02 03:49:55;;;;;;;;;;;2.90;99.90;;;;;;5074671;28;19930;-72
2022/12/02 03:52:21;;;;;;;;;;;2.90;99.90;;;;;;5033915;27;213738;-72
2022/12/02 03:54:47;;;;;;;;;;;2.90;99.90;;;;;;5099291;28;19924;-72
2022/12/02 03:57:13;;;;;;;;;;;2.90;99.90;;;;;;5025210;28;216098;-72
2022/12/02 03:59:39;;;;;;;;;;;2.90;99.90;;;;;;5086919;28;19938;-72
2022/12/02 04:02:05;;;;;;;;;;;2.90;99.90;;;;;;5055806;27;154433;-72
2022/12/02 04:04:31;;;;;;;;;;;2.90;99.90;;;;;;5061135;28;19921;-72
2022/12/02 04:06:57;;;;;;;;;;;2.80;99.90;;;;;;5041503;28;213281;-72
2022/12/02 04:09:23;;;;;;;;;;;2.90;99.90;;;;;;5054251;28;19921;-72
2022/12/02 04:11:49;;;;;;;;;;;2.90;99.90;;;;;;5026651;28;213678;-72
2022/12/02 04:14:15;;;;;;;;;;;2.90;99.90;;;;;;5072609;28;19943;-71
2022/12/02 04:16:41;;;;;;;;;;;2.80;99.90;;;;;;5059911;28;218904;-70
2022/12/02 04:19:07;;;;;;;;;;;2.80;99.90;;;;;;5022481;28;123443;-71
2022/12/02 04:21:32;;;;;;;;;;;2.80;99.90;;;;;;5082757;28;20385;-71
2022/12/02 04:23:58;;;;;;;;;;;2.80;99.90;;;;;;5010559;28;214377;-71
2022/12/02 04:26:25;;;;;;;;;;;2.80;99.90;;;;;;5084932;28;19928;-71
2022/12/02 04:28:51;;;;;;;;;;;2.80;99.90;;;;;;5037462;28;218546;-71
2022/12/02 04:31:17;;;;;;;;;;;2.80;99.90;;;;;;5077523;28;19956;-71
2022/12/02 04:33:43;;;;;;;;;;;2.70;99.90;;;;;;5044720;28;202282;-71
2022/12/02 04:36:09;;;;;;;;;;;2.70;99.90;;;;;;5082347;28;19966;-72
2022/12/02 04:38:35;;;;;;;;;;;2.70;99.90;;;;;;5039188;28;102711;-72
2022/12/02 04:41:01;;;;;;;;;;;2.70;99.90;;;;;;5076306;28;19943;-72
2022/12/02 04:43:27;;;;;;;;;;;2.70;99.90;;;;;;5039983;28;187028;-72
2022/12/02 04:45:53;;;;;;;;;;;2.70;99.90;;;;;;5086037;28;19921;-72
2022/12/02 04:48:19;;;;;;;;;;;2.70;99.90;;;;;;5014451;28;200862;-71
2022/12/02 04:50:45;;;;;;;;;;;2.70;99.90;;;;;;5104985;28;19924;-71
2022/12/02 04:53:11;;;;;;;;;;;2.70;99.90;;;;;;5046004;28;210418;-71
2022/12/02 04:55:37;;;;;;;;;;;2.60;99.90;;;;;;5083384;28;19947;-71
2022/12/02 04:58:03;;;;;;;;;;;2.60;99.90;;;;;;5032766;28;211793;-71
2022/12/02 05:00:29;;;;;;;;;;;2.60;99.90;;;;;;5077365;28;20019;-71
2022/12/02 05:02:55;;;;;;;;;;;2.70;99.90;;;;;;5011362;27;208778;-71
2022/12/02 05:05:21;;;;;;;;;;;2.60;99.90;;;;;;5072669;28;20011;-71
2022/12/02 05:07:47;;;;;;;;;;;2.60;99.90;;;;;;5022133;28;189927;-72
2022/12/02 05:10:13;;;;;;;;;;;2.60;99.90;;;;;;5063460;28;20011;-71
2022/12/02 05:12:39;;;;;;;;;;;2.60;99.90;;;;;;5021354;28;212462;-72
2022/12/02 05:15:06;;;;;;;;;;;2.60;99.90;;;;;;5036995;28;19921;-72
2022/12/02 05:17:32;;;;;;;;;;;2.60;99.90;;;;;;5026077;27;208683;-71
2022/12/02 05:19:58;;;;;;;;;;;2.60;99.90;;;;;;5070880;28;19927;-72
2022/12/02 05:22:24;;;;;;;;;;;2.50;99.90;;;;;;5040254;28;207758;-72
2022/12/02 05:24:50;;;;;;;;;;;2.50;99.90;;;;;;5088640;28;20274;-71
2022/12/02 05:27:15;;;;;;;;;;;2.50;99.90;;;;;;5021039;28;197422;-71
2022/12/02 05:29:41;;;;;;;;;;;2.50;99.90;;;;;;5071956;28;20007;-72
2022/12/02 05:32:07;;;;;;;;;;;2.50;99.90;;;;;;5024153;28;207419;-71
2022/12/02 05:34:33;;;;;;;;;;;2.50;99.90;;;;;;5088244;28;19994;-72
2022/12/02 05:36:59;;;;;;;;;;;2.50;99.90;;;;;;5022226;28;207930;-72
2022/12/02 05:39:25;;;;;;;;;;;2.50;99.90;;;;;;5054545;28;19920;-71
2022/12/02 05:41:51;;;;;;;;;;;2.40;99.90;;;;;;5025956;28;207099;-72
2022/12/02 05:44:19;;;;;;;;;;;2.50;99.90;;;;;;5074764;28;19925;-71
2022/12/02 05:46:45;;;;;;;;;;;2.40;99.90;;;;;;5046407;27;208224;-72
2022/12/02 05:49:15;;;;;;;;;;;2.50;99.90;;;;;;5054773;28;19925;-71
2022/12/02 05:51:41;;;;;;;;;;;2.50;99.90;;;;;;5056557;28;204235;-71
2022/12/02 05:54:07;;;;;;;;;;;2.40;99.90;;;;;;5028149;28;206724;-71
2022/12/02 05:56:34;;;;;;;;;;;2.40;99.90;;;;;;5102516;27;19939;-71
2022/12/02 05:59:01;;;;;;;;;;;2.40;99.90;;;;;;5030077;28;205225;-73
2022/12/02 06:01:27;;;;;;;;;;;2.40;99.90;;;;;;5070665;28;19924;-71
2022/12/02 06:03:53;;;;;;;;;;;2.40;99.90;;;;;;5024925;28;214539;-72
2022/12/02 06:06:23;;;;;;;;;;;2.40;99.90;;;;;;5073595;28;19959;-72
2022/12/02 06:08:49;;;;;;;;;;;2.40;99.90;;;;;;5035846;28;202729;-71
2022/12/02 06:11:35;;;;;;;;;;;2.40;99.90;;;;;;5073339;28;19935;-71
2022/12/02 06:14:05;;;;;;;;;;;2.50;99.90;;;;;;5016836;28;201759;-71
2022/12/02 06:16:31;;;;;;;;;;;2.50;99.90;;;;;;5077329;28;19931;-71
2022/12/02 06:19:01;;;;;;;;;;;2.50;99.90;;;;;;5030450;28;199211;-71
2022/12/02 06:21:27;;;;;;;;;;;2.50;99.90;;;;;;5075494;28;19928;-71
2022/12/02 06:23:57;;;;;;;;;;;2.50;99.90;;;;;;5024576;28;206141;-71
2022/12/02 06:26:23;;;;;;;;;;;2.50;99.90;;;;;;5073741;28;19921;-72
2022/12/02 06:28:51;;;;;;;;;;;2.50;99.90;;;;;;5014672;28;205162;-71
2022/12/02 06:31:23;;;;;;;;;;;2.50;99.90;;;;;;5074056;28;19939;-71
2022/12/02 06:33:51;;;;;;;;;;;2.60;99.90;;;;;;5028234;28;124254;-71
2022/12/02 06:36:19;;;;;;;;;;;2.60;99.90;;;;;;5103825;28;19925;-71
2022/12/02 06:38:57;;;;;;;;;;;2.60;99.90;;;;;;5032863;28;207129;-71
2022/12/02 06:41:30;;;;;;;;;;;2.60;99.90;;;;;;5078525;28;19931;-71
2022/12/02 06:46:45;;;;;;;;;;;2.60;99.90;;;;;;5076721;28;206702;-71
2022/12/02 06:49:11;;;;;;;;;;;2.70;99.90;;;;;;5049260;28;19928;-71
2022/12/02 06:51:37;;;;;;;;;;;2.70;99.90;;;;;;5075205;28;206814;-71
2022/12/02 06:54:04;;;;;;;;;;;2.60;99.90;;;;;;5035015;28;73743;-71
2022/12/02 06:56:30;;;;;;;;;;;2.70;99.90;;;;;;5109282;28;19931;-71
2022/12/02 06:58:56;;;;;;;;;;;2.70;99.90;;;;;;5009114;28;184084;-72
2022/12/02 07:01:22;;;;;;;;;;;2.70;99.90;;;;;;5116798;27;19955;-72
2022/12/02 07:03:56;;;;;;;;;;;2.70;99.90;;;;;;5002153;28;208596;-71
2022/12/02 07:06:25;;;;;;;;;;;2.70;99.90;;;;;;5078301;28;19920;-73
2022/12/02 07:08:54;;;;;;;;;;;2.70;99.90;;;;;;5024966;28;208972;-71
2022/12/02 07:11:48;;;;;;;;;;;2.70;99.90;;;;;;5077340;28;19928;-71
2022/12/02 07:14:22;;;;;;;;;;;2.80;99.90;;;;;;5029125;28;211723;-71
2022/12/02 07:16:50;;;;;;;;;;;2.70;99.90;;;;;;5064716;27;209273;-71
2022/12/02 07:19:18;;;;;;;;;;;2.80;99.90;;;;;;5081773;28;19935;-71
2022/12/02 07:21:44;;;;;;;;;;;2.80;99.90;;;;;;5051356;28;206728;-72
2022/12/02 07:24:13;;;;;;;;;;;2.80;99.90;;;;;;5056636;28;19921;-72
2022/12/02 07:26:39;;;;;;;;;;;2.80;99.90;;;;;;5062491;28;207821;-72
2022/12/02 07:29:09;;;;;;;;;;;2.80;99.90;;;;;;5041543;28;116913;-72
2022/12/02 07:31:36;;;;;;;;;;;2.80;99.90;;;;;;5077812;28;19924;-73
2022/12/02 07:34:02;;;;;;;;;;;2.90;99.90;;;;;;5040476;28;265524;-72
2022/12/02 07:36:28;;;;;;;;;;;2.90;99.90;;;;;;5082079;28;20655;-72
2022/12/02 07:38:54;;;;;;;;;;;2.90;99.90;;;;;;5003280;28;191596;-72
2022/12/02 07:41:20;;;;;;;;;;;2.90;99.90;;;;;;5101126;28;19920;-73
2022/12/02 07:43:46;;;;;;;;;;;2.90;99.90;;;;;;5027477;28;229731;-73
2022/12/02 07:46:12;;;;;;;;;;;2.90;99.90;;;;;;5079173;28;19928;-73
2022/12/02 07:48:38;;;;;;;;;;;2.90;99.90;;;;;;5030462;28;216537;-72
2022/12/02 07:51:04;;;;;;;;;;;2.90;99.90;;;;;;5073899;28;19928;-73
2022/12/02 07:53:30;;;;;;;;;;;2.90;99.90;;;;;;5035828;28;227604;-71
2022/12/02 07:55:57;;;;;;;;;;;2.90;99.90;;;;;;5081669;28;19983;-72
2022/12/02 07:58:23;;;;;;;;;;;2.80;99.90;;;;;;5042793;28;206679;-72
2022/12/02 08:00:49;;;;;;;;;;;2.80;99.90;;;;;;5083663;28;19947;-72
2022/12/02 08:03:14;;;;;;;;;;;2.80;99.90;;;;;;5026886;28;216486;-72
2022/12/02 08:05:40;;;;;;;;;;;2.80;99.90;;;;;;5082610;28;20318;-72
2022/12/02 08:08:06;;;;;;;;;;;2.80;99.90;;;;;;5012527;28;232995;-71
2022/12/02 08:10:32;;;;;;;;;;;2.80;99.90;;;;;;5069600;28;20011;-71
2022/12/02 08:12:58;;;;;;;;;;;2.80;99.90;;;;;;5033481;28;129999;-71
2022/12/02 08:15:24;;;;;;;;;;;2.80;99.90;;;;;;5078369;28;19927;-71
2022/12/02 08:17:50;;;;;;;;;;;2.80;99.90;;;;;;5044637;28;201376;-71
2022/12/02 08:20:16;;;;;;;;;;;2.80;99.90;;;;;;5075968;28;19927;-72
2022/12/02 08:22:42;;;;;;;;;;;2.80;99.90;;;;;;5036453;28;205334;-72
2022/12/02 08:25:09;;;;;;;;;;;2.80;99.90;;;;;;5086721;28;20027;-72
2022/12/02 08:27:39;;;;;;;;;;;2.80;99.90;;;;;;5021902;27;177221;-72
2022/12/02 08:30:08;;;;;;;;;;;2.80;99.90;;;;;;5096131;28;19924;-74
2022/12/02 08:32:34;;;;;;;;;;;2.80;99.90;;;;;;5040724;28;213999;-72
2022/12/02 08:35:01;;;;;;;;;;;2.80;99.90;;;;;;5077508;28;20087;-72
2022/12/02 08:37:27;;;;;;;;;;;2.70;99.90;;;;;;5035904;27;210334;-73
2022/12/02 08:39:52;;;;;;;;;;;2.80;99.90;;;;;;5082307;28;19939;-72
2022/12/02 08:42:19;;;;;;;;;;;2.80;99.90;;;;;;5036087;28;207504;-72
2022/12/02 08:44:44;;;;;;;;;;;2.80;99.90;;;;;;5078570;28;19932;-71
2022/12/02 08:47:10;;;;;;;;;;;2.80;99.90;;;;;;5048576;28;189816;-72
2022/12/02 08:49:36;;;;;;;;;;;2.80;99.90;;;;;;5064848;28;19974;-72
2022/12/02 08:52:02;;;;;;;;;;;2.80;99.90;;;;;;5037796;27;204839;-72
2022/12/02 08:54:28;;;;;;;;;;;2.80;99.90;;;;;;5064987;28;19939;-71
2022/12/02 08:56:55;;;;;;;;;;;2.80;99.90;;;;;;5027956;28;207046;-71
2022/12/02 08:59:21;;;;;;;;;;;2.80;99.90;;;;;;5092991;28;19943;-71
2022/12/02 09:01:47;;;;;;;;;;;2.80;99.90;;;;;;5034069;27;200677;-71
2022/12/02 09:04:13;;;;;;;;;;;2.80;99.90;;;;;;5054544;28;19928;-71
2022/12/02 09:06:40;;;;;;;;;;;2.70;99.90;;;;;;5083256;28;220034;-71
2022/12/02 09:09:06;;;;;;;;;;;2.80;99.90;;;;;;5031080;28;209047;-71
2022/12/02 09:11:32;;;;;;;;;;;2.80;99.90;;;;;;5078067;28;19924;-72
2022/12/02 09:13:59;;;;;;;;;;;2.80;99.90;;;;;;5030124;28;118533;-71
2022/12/02 09:16:24;;;;;;;;;;;2.80;99.90;;;;;;5078856;28;19928;-72
2022/12/02 09:18:50;;;;;;;;;;;2.80;99.90;;;;;;5014978;28;129274;-71
2022/12/02 09:21:16;;;;;;;;;;;2.80;99.90;;;;;;5107888;28;19931;-72
2022/12/02 09:23:42;;;;;;;;;;;2.80;99.90;;;;;;5011794;28;165368;-71
2022/12/02 09:26:08;;;;;;;;;;;2.80;99.90;;;;;;5078370;28;19974;-71
2022/12/02 09:28:34;;;;;;;;;;;2.80;99.90;;;;;;5014912;28;208948;-72
2022/12/02 09:31:00;;;;;;;;;;;2.80;99.90;;;;;;5074401;28;19935;-73
2022/12/02 09:33:26;;;;;;;;;;;2.80;99.90;;;;;;5048345;27;209860;-72
2022/12/02 09:35:52;;;;;;;;;;;2.90;99.90;;;;;;5078392;28;20030;-72
2022/12/02 09:38:18;;;;;;;;;;;2.90;99.90;;;;;;5045080;28;197740;-74
2022/12/02 09:40:44;;;;;;;;;;;3.00;99.90;;;;;;5095961;28;20194;-72
2022/12/02 09:43:10;;;;;;;;;;;3.00;99.90;;;;;;5037714;28;210696;-72
2022/12/02 09:45:36;;;;;;;;;;;3.10;99.90;;;;;;5077877;28;19959;-72
2022/12/02 09:48:02;;;;;;;;;;;3.20;99.90;;;;;;5037807;28;215288;-72
2022/12/02 09:50:28;;;;;;;;;;;3.30;99.90;;;;;;5083566;28;19931;-72
2022/12/02 09:52:57;;;;;;;;;;;3.40;99.90;;;;;;5052083;28;211753;-72
2022/12/02 09:55:23;;;;;;;;;;;3.40;99.90;;;;;;5064511;28;19928;-71
2022/12/02 09:57:49;;;;;;;;;;;3.50;99.90;;;;;;5027569;28;146283;-72
2022/12/02 10:00:17;;;;;;;;;;;3.40;99.90;;;;;;5064148;28;19948;-72
2022/12/02 10:02:44;;;;;;;;;;;3.50;99.90;;;;;;5022748;28;221695;-72
2022/12/02 10:05:14;;;;;;;;;;;3.50;99.90;;;;;;5088572;28;19931;-72
2022/12/02 10:07:40;;;;;;;;;;;3.50;99.90;;;;;;5030658;28;191026;-72
2022/12/02 10:10:10;;;;;;;;;;;3.50;99.90;;;;;;5085659;28;20529;-72
2022/12/02 10:12:36;;;;;;;;;;;3.60;99.90;;;;;;5029363;28;210321;-72
2022/12/02 10:15:02;;;;;;;;;;;3.60;99.90;;;;;;5077609;28;19928;-72
2022/12/02 10:17:28;;;;;;;;;;;3.50;99.90;;;;;;5043613;28;209261;-72
2022/12/02 10:19:54;;;;;;;;;;;3.60;99.90;;;;;;5095422;28;19924;-73
2022/12/02 10:22:21;;;;;;;;;;;3.60;99.90;;;;;;5034814;28;213849;-72
2022/12/02 10:24:47;;;;;;;;;;;3.60;99.90;;;;;;5081626;28;19929;-72
2022/12/02 10:27:21;;;;;;;;;;;3.60;99.90;;;;;;5041513;28;207521;-72
2022/12/02 10:29:47;;;;;;;;;;;3.50;99.90;;;;;;5057896;28;19927;-71
2022/12/02 10:32:25;;;;;;;;;;;3.50;99.90;;;;;;5029054;28;184239;-71
2022/12/02 10:35:08;;;;;;;;;;;3.50;99.90;;;;;;5079727;28;19920;-72
2022/12/02 10:37:35;;;;;;;;;;;3.60;99.90;;;;;;5044112;28;160388;-72
2022/12/02 10:40:09;;;;;;;;;;;3.60;99.90;;;;;;5073066;28;19935;-72
2022/12/02 10:42:35;;;;;;;;;;;3.50;99.90;;;;;;5022103;28;207076;-72
2022/12/02 10:45:09;;;;;;;;;;;3.40;99.90;;;;;;5073953;28;19920;-71
2022/12/02 10:47:35;;;;;;;;;;;3.40;99.90;;;;;;5037384;28;207131;-71
2022/12/02 10:50:01;;;;;;;;;;;3.40;99.90;;;;;;5058381;28;19944;-71
2022/12/02 10:52:27;;;;;;;;;;;3.40;99.90;;;;;;5041419;27;201504;-71
2022/12/02 10:54:54;;;;;;;;;;;3.40;99.90;;;;;;5060244;28;19924;-72
2022/12/02 10:57:24;;;;;;;;;;;3.30;99.90;;;;;;5034733;28;209839;-72
2022/12/02 10:59:50;;;;;;;;;;;3.40;99.90;;;;;;5076349;28;19928;-71
2022/12/02 11:02:30;;;;;;;;;;;3.30;99.90;;;;;;5034031;28;169999;-71
2022/12/02 11:05:00;;;;;;;;;;;3.40;99.90;;;;;;5043856;28;19920;-72
2022/12/02 11:07:26;;;;;;;;;;;3.50;99.90;;;;;;5025960;27;215276;-72
2022/12/02 11:09:54;;;;;;;;;;;3.40;99.90;;;;;;5077053;28;19924;-71
2022/12/02 11:12:55;;;;;;;;;;;3.40;99.90;;;;;;5026113;28;206657;-72
2022/12/02 11:15:32;;;;;;;;;;;3.40;99.90;;;;;;5023037;28;19908;-72
2022/12/02 11:17:58;;;;;;;;;;;3.50;99.90;;;;;;4993677;28;207075;-71
2022/12/02 11:20:30;;;;;;;;;;;3.50;99.90;;;;;;5040112;28;19952;-72
2022/12/02 11:22:59;;;;;;;;;;;3.50;99.90;;;;;;4992843;28;208214;-72
2022/12/02 11:25:43;;;;;;;;;;;3.50;99.90;;;;;;5041058;28;19928;-71
2022/12/02 11:28:27;;;;;;;;;;;3.50;99.90;;;;;;4985269;28;167575;-71
2022/12/02 11:31:17;;;;;;;;;;;3.50;99.90;;;;;;5037857;28;19945;-71
2022/12/02 11:33:43;;;;;;;;;;;3.50;99.90;;;;;;4928667;28;136203;-72
2022/12/02 11:36:16;;;;;;;;;;;3.50;99.90;;;;;;4984446;28;19930;-72
2022/12/02 11:38:45;;;;;;;;;;;3.50;99.90;;;;;;4917542;28;164513;-72
2022/12/02 11:41:12;;;;;;;;;;;3.50;99.90;;;;;;4980774;28;19922;-71
2022/12/02 11:43:43;;;;;;;;;;;3.40;99.90;;;;;;4947240;28;205894;-71
2022/12/02 11:46:10;;;;;;;;;;;3.50;99.90;;;;;;4984081;28;19926;-72
2022/12/02 11:48:51;;;;;;;;;;;3.40;99.90;;;;;;4945692;28;192019;-73
2022/12/02 11:51:32;;;;;;;;;;;3.40;99.90;;;;;;4983325;28;19970;-73
2022/12/02 11:53:58;;;;;;;;;;;3.40;99.90;;;;;;4927880;28;218215;-74
2022/12/02 11:56:37;;;;;;;;;;;3.40;99.90;;;;;;5000631;28;19941;-73
2022/12/02 11:59:16;;;;;;;;;;;3.40;99.90;;;;;;4944094;28;206921;-72
2022/12/02 12:01:42;;;;;;;;;;;3.40;99.90;;;;;;4968624;28;209097;-73
2022/12/02 12:04:20;;;;;;;;;;;3.40;99.90;;;;;;4966293;28;123979;-73
2022/12/02 12:06:54;;;;;;;;;;;3.40;99.90;;;;;;4946075;28;209762;-73
2022/12/02 12:09:20;;;;;;;;;;;3.40;99.90;;;;;;4939578;28;20399;-73
2022/12/02 12:12:04;;;;;;;;;;;3.40;99.90;;;;;;5033165;28;211430;-73
2022/12/02 12:14:30;;;;;;;;;;;3.40;99.90;;;;;;5065739;28;19924;-72
2022/12/02 12:17:14;;;;;;;;;;;3.40;99.90;;;;;;5006432;28;212263;-72
2022/12/02 12:19:40;;;;;;;;;;;3.30;99.90;;;;;;5066799;28;19935;-72
2022/12/02 12:22:26;;;;;;;;;;;3.30;99.90;;;;;;5036063;28;214766;-75
2022/12/02 12:24:52;;;;;;;;;;;3.30;99.90;;;;;;5065658;28;19921;-73
2022/12/02 12:27:31;;;;;;;;;;;3.30;99.90;;;;;;5026700;28;206861;-73
2022/12/02 12:29:57;;;;;;;;;;;3.30;99.90;;;;;;5070905;28;19920;-73
2022/12/02 12:32:23;;;;;;;;;;;3.30;99.90;;;;;;5024798;28;207192;-73
2022/12/02 12:34:49;;;;;;;;;;;3.30;99.90;;;;;;5069097;28;19935;-73
2022/12/02 12:37:15;;;;;;;;;;;3.20;99.90;;;;;;5021749;28;227388;-73
2022/12/02 12:39:41;;;;;;;;;;;3.20;99.90;;;;;;5060699;28;20389;-73
2022/12/02 12:42:07;;;;;;;;;;;3.20;99.90;;;;;;5026213;28;152359;-73
2022/12/02 12:44:33;;;;;;;;;;;3.20;99.90;;;;;;5058695;28;19927;-73
2022/12/02 12:46:59;;;;;;;;;;;3.20;99.90;;;;;;5024533;28;207295;-73
2022/12/02 12:49:25;;;;;;;;;;;3.20;99.90;;;;;;5055379;28;19925;-72
2022/12/02 12:51:51;;;;;;;;;;;3.20;99.90;;;;;;5022273;28;214096;-72
2022/12/02 12:54:17;;;;;;;;;;;3.20;99.90;;;;;;5082375;28;19920;-73
2022/12/02 12:56:43;;;;;;;;;;;3.20;99.90;;;;;;5031310;28;208097;-72
2022/12/02 12:59:09;;;;;;;;;;;3.20;99.90;;;;;;5064029;28;20008;-72
2022/12/02 13:01:36;;;;;;;;;;;3.20;99.90;;;;;;5076400;28;19924;-73
2022/12/02 13:04:03;;;;;;;;;;;3.20;99.90;;;;;;4995643;28;174333;-74
2022/12/02 13:06:29;;;;;;;;;;;3.20;99.90;;;;;;5074380;28;19925;-73
2022/12/02 13:08:55;;;;;;;;;;;3.20;99.90;;;;;;4992382;28;105274;-72
2022/12/02 13:11:21;;;;;;;;;;;3.20;99.90;;;;;;5104776;28;19927;-74
2022/12/02 13:13:47;;;;;;;;;;;3.20;99.90;;;;;;5013021;28;117673;-74
2022/12/02 13:16:13;;;;;;;;;;;3.10;99.90;;;;;;5101846;28;19936;-74
2022/12/02 13:18:38;;;;;;;;;;;3.20;99.90;;;;;;4998396;28;114159;-74
2022/12/02 13:21:04;;;;;;;;;;;3.20;99.90;;;;;;5080005;28;19927;-74
2022/12/02 13:23:30;;;;;;;;;;;3.20;99.90;;;;;;5014254;28;216054;-74
2022/12/02 13:25:56;;;;;;;;;;;3.20;99.90;;;;;;5068476;28;19928;-74
2022/12/02 13:28:22;;;;;;;;;;;3.20;99.90;;;;;;5000101;28;206529;-74
2022/12/02 13:30:50;;;;;;;;;;;3.20;99.90;;;;;;5077940;28;19966;-74
2022/12/02 13:33:16;;;;;;;;;;;3.20;99.90;;;;;;5016829;28;127258;-74
2022/12/02 13:35:42;;;;;;;;;;;3.20;99.90;;;;;;5061663;28;19938;-73
2022/12/02 13:38:08;;;;;;;;;;;3.20;99.90;;;;;;5025448;28;146008;-74
2022/12/02 13:40:34;;;;;;;;;;;3.10;99.90;;;;;;5053570;28;19932;-71
2022/12/02 13:43:00;;;;;;;;;;;3.20;99.90;;;;;;5019528;28;207714;-73
2022/12/02 13:45:26;;;;;;;;;;;3.20;99.90;;;;;;5068876;28;19924;-71
2022/12/02 13:47:52;;;;;;;;;;;3.10;99.90;;;;;;5031288;28;59584;-72
2022/12/02 13:50:18;;;;;;;;;;;3.10;99.90;;;;;;5064904;28;20089;-72
2022/12/02 13:52:44;;;;;;;;;;;3.10;99.90;;;;;;5022195;28;208131;-72
2022/12/02 13:55:10;;;;;;;;;;;3.10;99.90;;;;;;5060715;28;19931;-72
2022/12/02 13:57:36;;;;;;;;;;;3.10;99.90;;;;;;5032575;28;207359;-72
2022/12/02 14:00:03;;;;;;;;;;;3.10;99.90;;;;;;5064834;28;19929;-73
2022/12/02 14:02:29;;;;;;;;;;;3.10;99.90;;;;;;5035364;28;146109;-72
2022/12/02 14:04:55;;;;;;;;;;;3.10;99.90;;;;;;5048257;28;19978;-73
2022/12/02 14:07:21;;;;;;;;;;;3.00;99.90;;;;;;5023876;28;177591;-72
2022/12/02 14:09:46;;;;;;;;;;;3.00;99.90;;;;;;5054404;28;19987;-74
2022/12/02 14:12:13;;;;;;;;;;;3.00;99.90;;;;;;5023982;28;211714;-72
2022/12/02 14:14:39;;;;;;;;;;;3.00;99.90;;;;;;5066094;28;19928;-72
2022/12/02 14:17:05;;;;;;;;;;;3.00;99.90;;;;;;5016066;28;207487;-72
2022/12/02 14:19:31;;;;;;;;;;;3.00;99.90;;;;;;5066368;28;19971;-72
2022/12/02 14:21:57;;;;;;;;;;;3.00;99.90;;;;;;5019314;28;208933;-72
2022/12/02 14:24:23;;;;;;;;;;;3.00;99.90;;;;;;5072623;28;19924;-72
2022/12/02 14:26:49;;;;;;;;;;;3.00;99.90;;;;;;5005017;28;208423;-73
2022/12/02 14:29:15;;;;;;;;;;;3.00;99.90;;;;;;5067183;28;19924;-74
2022/12/02 14:31:41;;;;;;;;;;;3.00;99.90;;;;;;5054152;28;204797;-73